sensor_id;sensor_type;location;lat;lon;timestamp;pressure;altitude;pressure_sealevel;temperature
71649;BMP180;59492;45.638;11.714;2023-01-20T00:00:29;100029.60;;;16.86
71649;BMP180;59492;45.638;11.714;2023-01-20T00:02:55;100031.20;;;16.82
71649;BMP180;59492;45.638;11.714;2023-01-20T00:05:21;100027.80;;;16.80
71649;BMP180;59492;45.638;11.714;2023-01-20T00:07:47;100028.60;;;16.80
71649;BMP180;59492;45.638;11.714;2023-01-20T00:10:13;100025.80;;;16.80
71649;BMP180;59492;45.638;11.714;2023-01-20T00:12:39;100029.80;;;16.80
71649;BMP180;59492;45.638;11.714;2023-01-20T00:15:05;100031.60;;;16.90
71649;BMP180;59492;45.638;11.714;2023-01-20T00:17:31;100035.00;;;16.90
71649;BMP180;59492;45.638;11.714;2023-01-20T00:19:57;100035.20;;;16.90
71649;BMP180;59492;45.638;11.714;2023-01-20T00:22:22;100034.60;;;16.90
71649;BMP180;59492;45.638;11.714;2023-01-20T00:24:48;100037.20;;;16.84
71649;BMP180;59492;45.638;11.714;2023-01-20T00:27:14;100039.60;;;16.80
71649;BMP180;59492;45.638;11.714;2023-01-20T00:29:40;100046.20;;;16.80
71649;BMP180;59492;45.638;11.714;2023-01-20T00:32:09;100047.00;;;16.80
71649;BMP180;59492;45.638;11.714;2023-01-20T00:34:35;100048.40;;;16.80
71649;BMP180;59492;45.638;11.714;2023-01-20T00:37:01;100048.60;;;16.80
71649;BMP180;59492;45.638;11.714;2023-01-20T00:39:26;100052.60;;;16.80
71649;BMP180;59492;45.638;11.714;2023-01-20T00:41:52;100056.80;;;16.80
71649;BMP180;59492;45.638;11.714;2023-01-20T00:44:18;100056.60;;;16.76
71649;BMP180;59492;45.638;11.714;2023-01-20T00:46:43;100063.60;;;16.76
71649;BMP180;59492;45.638;11.714;2023-01-20T00:49:11;100065.60;;;16.72
71649;BMP180;59492;45.638;11.714;2023-01-20T00:51:36;100075.60;;;16.70
71649;BMP180;59492;45.638;11.714;2023-01-20T00:54:02;100074.00;;;16.70
71649;BMP180;59492;45.638;11.714;2023-01-20T00:56:28;100082.00;;;16.78
71649;BMP180;59492;45.638;11.714;2023-01-20T00:58:54;100083.60;;;16.80
71649;BMP180;59492;45.638;11.714;2023-01-20T01:01:20;100092.40;;;16.80
71649;BMP180;59492;45.638;11.714;2023-01-20T01:03:46;100093.00;;;16.80
71649;BMP180;59492;45.638;11.714;2023-01-20T01:06:14;100096.80;;;16.80
71649;BMP180;59492;45.638;11.714;2023-01-20T01:08:41;100098.80;;;16.80
71649;BMP180;59492;45.638;11.714;2023-01-20T01:11:08;100097.80;;;16.76
71649;BMP180;59492;45.638;11.714;2023-01-20T01:13:34;100099.00;;;16.74
71649;BMP180;59492;45.638;11.714;2023-01-20T01:16:03;100104.60;;;16.72
71649;BMP180;59492;45.638;11.714;2023-01-20T01:18:29;100103.40;;;16.70
71649;BMP180;59492;45.638;11.714;2023-01-20T01:20:55;100103.80;;;16.70
71649;BMP180;59492;45.638;11.714;2023-01-20T01:23:20;100103.40;;;16.70
71649;BMP180;59492;45.638;11.714;2023-01-20T01:25:46;100100.40;;;16.70
71649;BMP180;59492;45.638;11.714;2023-01-20T01:28:11;100102.40;;;16.70
71649;BMP180;59492;45.638;11.714;2023-01-20T01:30:37;100106.40;;;16.70
71649;BMP180;59492;45.638;11.714;2023-01-20T01:33:03;100107.00;;;16.66
71649;BMP180;59492;45.638;11.714;2023-01-20T01:35:28;100111.80;;;16.66
71649;BMP180;59492;45.638;11.714;2023-01-20T01:37:54;100114.00;;;16.64
71649;BMP180;59492;45.638;11.714;2023-01-20T01:40:19;100119.00;;;16.60
71649;BMP180;59492;45.638;11.714;2023-01-20T01:42:45;100126.00;;;16.60
71649;BMP180;59492;45.638;11.714;2023-01-20T01:47:42;100138.40;;;16.70
71649;BMP180;59492;45.638;11.714;2023-01-20T01:50:12;100135.80;;;16.70
71649;BMP180;59492;45.638;11.714;2023-01-20T01:52:41;100137.00;;;16.66
71649;BMP180;59492;45.638;11.714;2023-01-20T01:55:08;100142.80;;;16.62
71649;BMP180;59492;45.638;11.714;2023-01-20T01:57:35;100142.00;;;16.60
71649;BMP180;59492;45.638;11.714;2023-01-20T02:00:02;100142.60;;;16.60
71649;BMP180;59492;45.638;11.714;2023-01-20T02:02:28;100142.20;;;16.60
71649;BMP180;59492;45.638;11.714;2023-01-20T02:04:53;100144.00;;;16.60
71649;BMP180;59492;45.638;11.714;2023-01-20T02:07:20;100142.60;;;16.60
71649;BMP180;59492;45.638;11.714;2023-01-20T02:09:46;100146.00;;;16.60
71649;BMP180;59492;45.638;11.714;2023-01-20T02:12:15;100146.80;;;16.60
71649;BMP180;59492;45.638;11.714;2023-01-20T02:14:46;100151.80;;;16.58
71649;BMP180;59492;45.638;11.714;2023-01-20T02:17:35;100153.40;;;16.52
71649;BMP180;59492;45.638;11.714;2023-01-20T02:31:59;100152.80;;;16.60
71649;BMP180;59492;45.638;11.714;2023-01-20T02:34:28;100153.80;;;16.50
71649;BMP180;59492;45.638;11.714;2023-01-20T02:42:08;100151.80;;;16.50
71649;BMP180;59492;45.638;11.714;2023-01-20T02:44:43;100153.60;;;16.50
71649;BMP180;59492;45.638;11.714;2023-01-20T02:49:53;100147.40;;;16.50
71649;BMP180;59492;45.638;11.714;2023-01-20T02:52:29;100151.20;;;16.44
71649;BMP180;59492;45.638;11.714;2023-01-20T02:55:01;100145.40;;;16.44
71649;BMP180;59492;45.638;11.714;2023-01-20T02:57:31;100148.80;;;16.42
71649;BMP180;59492;45.638;11.714;2023-01-20T03:00:07;100146.80;;;16.40
71649;BMP180;59492;45.638;11.714;2023-01-20T03:02:34;100148.40;;;16.40
71649;BMP180;59492;45.638;11.714;2023-01-20T03:05:09;100142.40;;;16.40
71649;BMP180;59492;45.638;11.714;2023-01-20T03:07:39;100143.00;;;16.40
71649;BMP180;59492;45.638;11.714;2023-01-20T03:10:09;100143.80;;;16.40
71649;BMP180;59492;45.638;11.714;2023-01-20T03:12:52;100142.40;;;16.40
71649;BMP180;59492;45.638;11.714;2023-01-20T03:15:23;100139.20;;;16.40
71649;BMP180;59492;45.638;11.714;2023-01-20T03:17:50;100141.40;;;16.50
71649;BMP180;59492;45.638;11.714;2023-01-20T03:20:16;100139.40;;;16.48
71649;BMP180;59492;45.638;11.714;2023-01-20T03:22:42;100142.00;;;16.40
71649;BMP180;59492;45.638;11.714;2023-01-20T03:25:09;100140.00;;;16.40
71649;BMP180;59492;45.638;11.714;2023-01-20T03:27:35;100144.20;;;16.40
71649;BMP180;59492;45.638;11.714;2023-01-20T03:30:01;100143.20;;;16.40
71649;BMP180;59492;45.638;11.714;2023-01-20T03:32:28;100145.60;;;16.40
71649;BMP180;59492;45.638;11.714;2023-01-20T03:34:54;100147.80;;;16.40
71649;BMP180;59492;45.638;11.714;2023-01-20T03:37:21;100141.60;;;16.40
71649;BMP180;59492;45.638;11.714;2023-01-20T03:39:47;100142.40;;;16.40
71649;BMP180;59492;45.638;11.714;2023-01-20T03:42:18;100144.60;;;16.40
71649;BMP180;59492;45.638;11.714;2023-01-20T03:45:06;100143.20;;;16.34
71649;BMP180;59492;45.638;11.714;2023-01-20T03:47:47;100141.20;;;16.30
71649;BMP180;59492;45.638;11.714;2023-01-20T03:52:53;100134.20;;;16.30
71649;BMP180;59492;45.638;11.714;2023-01-20T03:57:55;100130.40;;;16.30
71649;BMP180;59492;45.638;11.714;2023-01-20T04:00:25;100133.60;;;16.32
71649;BMP180;59492;45.638;11.714;2023-01-20T04:02:53;100130.80;;;16.40
71649;BMP180;59492;45.638;11.714;2023-01-20T04:05:20;100127.80;;;16.40
71649;BMP180;59492;45.638;11.714;2023-01-20T04:07:47;100126.80;;;16.40
71649;BMP180;59492;45.638;11.714;2023-01-20T04:10:14;100123.00;;;16.40
71649;BMP180;59492;45.638;11.714;2023-01-20T04:12:42;100122.00;;;16.38
71649;BMP180;59492;45.638;11.714;2023-01-20T04:15:08;100118.40;;;16.30
71649;BMP180;59492;45.638;11.714;2023-01-20T04:17:34;100118.00;;;16.32
71649;BMP180;59492;45.638;11.714;2023-01-20T04:20:06;100117.80;;;16.30
71649;BMP180;59492;45.638;11.714;2023-01-20T04:22:41;100119.40;;;16.30
71649;BMP180;59492;45.638;11.714;2023-01-20T04:25:19;100117.00;;;16.30
71649;BMP180;59492;45.638;11.714;2023-01-20T04:27:46;100108.40;;;16.30
71649;BMP180;59492;45.638;11.714;2023-01-20T04:30:12;100109.40;;;16.30
71649;BMP180;59492;45.638;11.714;2023-01-20T04:32:39;100106.00;;;16.30
71649;BMP180;59492;45.638;11.714;2023-01-20T04:35:05;100102.80;;;16.24
71649;BMP180;59492;45.638;11.714;2023-01-20T04:37:31;100103.40;;;16.26
71649;BMP180;59492;45.638;11.714;2023-01-20T04:39:56;100101.00;;;16.26
71649;BMP180;59492;45.638;11.714;2023-01-20T04:42:22;100103.00;;;16.22
71649;BMP180;59492;45.638;11.714;2023-01-20T04:44:48;100100.00;;;16.20
71649;BMP180;59492;45.638;11.714;2023-01-20T04:47:14;100099.80;;;16.20
71649;BMP180;59492;45.638;11.714;2023-01-20T04:49:39;100101.40;;;16.20
71649;BMP180;59492;45.638;11.714;2023-01-20T04:52:05;100101.80;;;16.28
71649;BMP180;59492;45.638;11.714;2023-01-20T04:54:30;100103.00;;;16.30
71649;BMP180;59492;45.638;11.714;2023-01-20T04:56:56;100110.80;;;16.30
71649;BMP180;59492;45.638;11.714;2023-01-20T04:59:21;100106.80;;;16.28
71649;BMP180;59492;45.638;11.714;2023-01-20T05:01:47;100112.20;;;16.26
71649;BMP180;59492;45.638;11.714;2023-01-20T05:04:12;100111.60;;;16.22
71649;BMP180;59492;45.638;11.714;2023-01-20T05:06:38;100117.20;;;16.20
71649;BMP180;59492;45.638;11.714;2023-01-20T05:09:11;100113.00;;;16.20
71649;BMP180;59492;45.638;11.714;2023-01-20T05:11:37;100115.20;;;16.20
71649;BMP180;59492;45.638;11.714;2023-01-20T05:14:03;100115.20;;;16.20
71649;BMP180;59492;45.638;11.714;2023-01-20T05:16:28;100116.60;;;16.20
71649;BMP180;59492;45.638;11.714;2023-01-20T05:18:56;100119.80;;;16.20
71649;BMP180;59492;45.638;11.714;2023-01-20T05:21:22;100121.40;;;16.20
71649;BMP180;59492;45.638;11.714;2023-01-20T05:23:48;100117.00;;;16.18
71649;BMP180;59492;45.638;11.714;2023-01-20T05:26:13;100116.00;;;16.16
71649;BMP180;59492;45.638;11.714;2023-01-20T05:28:40;100118.80;;;16.14
71649;BMP180;59492;45.638;11.714;2023-01-20T05:31:06;100123.20;;;16.14
71649;BMP180;59492;45.638;11.714;2023-01-20T05:33:32;100121.40;;;16.10
71649;BMP180;59492;45.638;11.714;2023-01-20T05:35:57;100122.60;;;16.20
71649;BMP180;59492;45.638;11.714;2023-01-20T05:38:23;100123.80;;;16.20
71649;BMP180;59492;45.638;11.714;2023-01-20T05:40:48;100128.80;;;16.20
71649;BMP180;59492;45.638;11.714;2023-01-20T05:43:14;100127.20;;;16.20
71649;BMP180;59492;45.638;11.714;2023-01-20T05:45:40;100129.80;;;16.20
71649;BMP180;59492;45.638;11.714;2023-01-20T05:48:07;100126.60;;;16.18
71649;BMP180;59492;45.638;11.714;2023-01-20T05:50:34;100126.20;;;16.16
71649;BMP180;59492;45.638;11.714;2023-01-20T05:53:00;100124.20;;;16.12
71649;BMP180;59492;45.638;11.714;2023-01-20T05:55:25;100125.40;;;16.10
71649;BMP180;59492;45.638;11.714;2023-01-20T05:57:51;100127.40;;;16.10
71649;BMP180;59492;45.638;11.714;2023-01-20T06:00:17;100132.40;;;16.10
71649;BMP180;59492;45.638;11.714;2023-01-20T06:02:43;100134.40;;;16.10
71649;BMP180;59492;45.638;11.714;2023-01-20T06:05:09;100138.00;;;16.10
71649;BMP180;59492;45.638;11.714;2023-01-20T06:07:34;100140.60;;;16.10
71649;BMP180;59492;45.638;11.714;2023-01-20T06:10:00;100144.60;;;16.10
71649;BMP180;59492;45.638;11.714;2023-01-20T06:12:26;100142.20;;;16.10
71649;BMP180;59492;45.638;11.714;2023-01-20T06:14:52;100137.20;;;16.08
71649;BMP180;59492;45.638;11.714;2023-01-20T06:17:17;100139.20;;;16.06
71649;BMP180;59492;45.638;11.714;2023-01-20T06:19:43;100138.80;;;16.06
71649;BMP180;59492;45.638;11.714;2023-01-20T06:22:13;100138.20;;;16.00
71649;BMP180;59492;45.638;11.714;2023-01-20T06:24:44;100137.60;;;16.00
71649;BMP180;59492;45.638;11.714;2023-01-20T06:27:09;100140.80;;;16.00
71649;BMP180;59492;45.638;11.714;2023-01-20T06:29:35;100140.00;;;16.10
71649;BMP180;59492;45.638;11.714;2023-01-20T06:32:01;100144.60;;;16.10
71649;BMP180;59492;45.638;11.714;2023-01-20T06:34:26;100143.60;;;16.10
71649;BMP180;59492;45.638;11.714;2023-01-20T06:36:52;100144.60;;;16.10
71649;BMP180;59492;45.638;11.714;2023-01-20T06:39:17;100140.80;;;16.08
71649;BMP180;59492;45.638;11.714;2023-01-20T06:41:43;100142.80;;;16.06
71649;BMP180;59492;45.638;11.714;2023-01-20T06:44:10;100148.00;;;16.04
71649;BMP180;59492;45.638;11.714;2023-01-20T06:46:38;100153.40;;;16.02
71649;BMP180;59492;45.638;11.714;2023-01-20T06:49:05;100159.40;;;16.00
71649;BMP180;59492;45.638;11.714;2023-01-20T06:51:31;100161.20;;;16.00
71649;BMP180;59492;45.638;11.714;2023-01-20T06:53:58;100165.60;;;16.00
71649;BMP180;59492;45.638;11.714;2023-01-20T06:56:25;100169.60;;;16.00
71649;BMP180;59492;45.638;11.714;2023-01-20T06:58:51;100178.00;;;16.00
71649;BMP180;59492;45.638;11.714;2023-01-20T07:01:25;100184.60;;;16.00
71649;BMP180;59492;45.638;11.714;2023-01-20T07:03:52;100185.20;;;16.00
71649;BMP180;59492;45.638;11.714;2023-01-20T07:06:28;100192.20;;;16.00
71649;BMP180;59492;45.638;11.714;2023-01-20T07:08:56;100198.20;;;16.00
71649;BMP180;59492;45.638;11.714;2023-01-20T07:11:23;100197.80;;;16.10
71649;BMP180;59492;45.638;11.714;2023-01-20T07:13:51;100197.60;;;16.10
71649;BMP180;59492;45.638;11.714;2023-01-20T07:16:17;100201.40;;;16.10
71649;BMP180;59492;45.638;11.714;2023-01-20T07:18:47;100204.20;;;16.10
71649;BMP180;59492;45.638;11.714;2023-01-20T07:21:20;100203.20;;;16.06
71649;BMP180;59492;45.638;11.714;2023-01-20T07:23:51;100205.40;;;16.00
71649;BMP180;59492;45.638;11.714;2023-01-20T07:26:20;100208.20;;;16.02
71649;BMP180;59492;45.638;11.714;2023-01-20T07:28:49;100211.20;;;16.06
71649;BMP180;59492;45.638;11.714;2023-01-20T07:31:21;100211.40;;;16.04
71649;BMP180;59492;45.638;11.714;2023-01-20T07:33:58;100213.40;;;16.06
71649;BMP180;59492;45.638;11.714;2023-01-20T07:36:27;100212.60;;;16.10
71649;BMP180;59492;45.638;11.714;2023-01-20T07:38:53;100217.00;;;16.10
71649;BMP180;59492;45.638;11.714;2023-01-20T07:41:19;100221.20;;;16.10
71649;BMP180;59492;45.638;11.714;2023-01-20T07:43:47;100223.80;;;16.10
71649;BMP180;59492;45.638;11.714;2023-01-20T07:46:13;100233.60;;;16.10
71649;BMP180;59492;45.638;11.714;2023-01-20T07:48:39;100237.60;;;16.10
71649;BMP180;59492;45.638;11.714;2023-01-20T07:51:10;100240.00;;;16.10
71649;BMP180;59492;45.638;11.714;2023-01-20T07:53:44;100241.40;;;16.10
71649;BMP180;59492;45.638;11.714;2023-01-20T07:56:16;100246.00;;;16.20
71649;BMP180;59492;45.638;11.714;2023-01-20T07:58:42;100250.60;;;16.20
71649;BMP180;59492;45.638;11.714;2023-01-20T08:01:15;100251.80;;;16.26
71649;BMP180;59492;45.638;11.714;2023-01-20T08:03:44;100255.60;;;16.24
71649;BMP180;59492;45.638;11.714;2023-01-20T08:06:11;100265.00;;;16.24
71649;BMP180;59492;45.638;11.714;2023-01-20T08:08:38;100269.60;;;16.24
71649;BMP180;59492;45.638;11.714;2023-01-20T08:11:05;100274.80;;;16.20
71649;BMP180;59492;45.638;11.714;2023-01-20T08:13:31;100280.40;;;16.22
71649;BMP180;59492;45.638;11.714;2023-01-20T08:16:06;100283.00;;;16.22
71649;BMP180;59492;45.638;11.714;2023-01-20T08:18:33;100287.00;;;16.22
71649;BMP180;59492;45.638;11.714;2023-01-20T08:21:00;100288.20;;;16.26
71649;BMP180;59492;45.638;11.714;2023-01-20T08:23:26;100288.20;;;16.28
71649;BMP180;59492;45.638;11.714;2023-01-20T08:25:59;100290.40;;;16.28
71649;BMP180;59492;45.638;11.714;2023-01-20T08:28:26;100298.40;;;16.28
71649;BMP180;59492;45.638;11.714;2023-01-20T08:30:52;100301.00;;;16.24
71649;BMP180;59492;45.638;11.714;2023-01-20T08:33:18;100305.40;;;16.28
71649;BMP180;59492;45.638;11.714;2023-01-20T08:35:43;100306.00;;;16.24
71649;BMP180;59492;45.638;11.714;2023-01-20T08:38:09;100308.80;;;16.26
71649;BMP180;59492;45.638;11.714;2023-01-20T08:40:34;100312.00;;;16.26
71649;BMP180;59492;45.638;11.714;2023-01-20T08:43:01;100317.60;;;16.28
71649;BMP180;59492;45.638;11.714;2023-01-20T08:45:26;100321.00;;;16.30
71649;BMP180;59492;45.638;11.714;2023-01-20T08:47:52;100324.80;;;16.30
71649;BMP180;59492;45.638;11.714;2023-01-20T08:50:17;100331.00;;;16.30
71649;BMP180;59492;45.638;11.714;2023-01-20T08:52:43;100333.60;;;16.40
71649;BMP180;59492;45.638;11.714;2023-01-20T08:55:09;100340.40;;;16.40
71649;BMP180;59492;45.638;11.714;2023-01-20T08:57:36;100341.60;;;16.40
71649;BMP180;59492;45.638;11.714;2023-01-20T09:00:03;100346.20;;;16.40
71649;BMP180;59492;45.638;11.714;2023-01-20T09:02:29;100349.00;;;16.40
71649;BMP180;59492;45.638;11.714;2023-01-20T09:04:55;100350.60;;;16.40
71649;BMP180;59492;45.638;11.714;2023-01-20T09:07:20;100351.40;;;16.40
71649;BMP180;59492;45.638;11.714;2023-01-20T09:09:46;100352.00;;;16.40
71649;BMP180;59492;45.638;11.714;2023-01-20T09:12:12;100356.20;;;16.50
71649;BMP180;59492;45.638;11.714;2023-01-20T09:14:38;100350.40;;;16.60
71649;BMP180;59492;45.638;11.714;2023-01-20T09:17:04;100345.00;;;16.80
71649;BMP180;59492;45.638;11.714;2023-01-20T09:19:30;100337.20;;;17.10
71649;BMP180;59492;45.638;11.714;2023-01-20T09:21:56;100336.20;;;17.46
71649;BMP180;59492;45.638;11.714;2023-01-20T09:24:22;100345.00;;;17.70
71649;BMP180;59492;45.638;11.714;2023-01-20T09:26:48;100337.60;;;17.70
71649;BMP180;59492;45.638;11.714;2023-01-20T09:29:17;100336.40;;;18.08
71649;BMP180;59492;45.638;11.714;2023-01-20T09:31:47;100335.80;;;18.32
71649;BMP180;59492;45.638;11.714;2023-01-20T09:34:14;100335.20;;;18.60
71649;BMP180;59492;45.638;11.714;2023-01-20T09:36:44;100340.40;;;18.82
71649;BMP180;59492;45.638;11.714;2023-01-20T09:39:12;100344.00;;;19.02
71649;BMP180;59492;45.638;11.714;2023-01-20T09:42:04;100346.60;;;19.30
71649;BMP180;59492;45.638;11.714;2023-01-20T09:45:08;100355.00;;;19.40
71649;BMP180;59492;45.638;11.714;2023-01-20T09:47:48;100355.80;;;19.20
71649;BMP180;59492;45.638;11.714;2023-01-20T09:53:32;100350.20;;;19.40
71649;BMP180;59492;45.638;11.714;2023-01-20T09:56:01;100348.00;;;19.50
71649;BMP180;59492;45.638;11.714;2023-01-20T10:01:32;100345.60;;;19.70
71649;BMP180;59492;45.638;11.714;2023-01-20T10:04:32;100349.80;;;19.82
71649;BMP180;59492;45.638;11.714;2023-01-20T10:07:15;100354.00;;;20.00
71649;BMP180;59492;45.638;11.714;2023-01-20T10:09:59;100348.60;;;20.06
71649;BMP180;59492;45.638;11.714;2023-01-20T10:12:34;100347.60;;;20.10
71649;BMP180;59492;45.638;11.714;2023-01-20T10:15:15;100349.40;;;20.10
71649;BMP180;59492;45.638;11.714;2023-01-20T10:20:44;100343.20;;;20.10
71649;BMP180;59492;45.638;11.714;2023-01-20T10:23:17;100342.80;;;20.00
71649;BMP180;59492;45.638;11.714;2023-01-20T10:25:54;100344.00;;;20.02
71649;BMP180;59492;45.638;11.714;2023-01-20T10:28:28;100339.40;;;20.10
71649;BMP180;59492;45.638;11.714;2023-01-20T10:30:57;100344.80;;;20.00
71649;BMP180;59492;45.638;11.714;2023-01-20T10:33:36;100342.40;;;19.90
71649;BMP180;59492;45.638;11.714;2023-01-20T10:36:03;100343.40;;;19.90
71649;BMP180;59492;45.638;11.714;2023-01-20T10:38:46;100345.60;;;19.90
71649;BMP180;59492;45.638;11.714;2023-01-20T10:41:35;100337.00;;;19.90
71649;BMP180;59492;45.638;11.714;2023-01-20T10:44:10;100347.20;;;20.00
71649;BMP180;59492;45.638;11.714;2023-01-20T10:49:34;100338.60;;;19.90
71649;BMP180;59492;45.638;11.714;2023-01-20T10:57:17;100339.00;;;19.80
71649;BMP180;59492;45.638;11.714;2023-01-20T11:02:27;100339.00;;;19.70
71649;BMP180;59492;45.638;11.714;2023-01-20T11:05:15;100337.40;;;19.60
71649;BMP180;59492;45.638;11.714;2023-01-20T11:07:42;100337.80;;;19.52
71649;BMP180;59492;45.638;11.714;2023-01-20T11:10:17;100334.00;;;19.50
71649;BMP180;59492;45.638;11.714;2023-01-20T11:12:45;100333.60;;;19.40
71649;BMP180;59492;45.638;11.714;2023-01-20T11:15:21;100329.40;;;19.40
71649;BMP180;59492;45.638;11.714;2023-01-20T11:18:27;100334.40;;;19.34
71649;BMP180;59492;45.638;11.714;2023-01-20T11:20:55;100334.00;;;19.30
71649;BMP180;59492;45.638;11.714;2023-01-20T11:23:23;100334.00;;;19.20
71649;BMP180;59492;45.638;11.714;2023-01-20T11:26:00;100332.40;;;19.20
71649;BMP180;59492;45.638;11.714;2023-01-20T11:28:34;100327.60;;;19.20
71649;BMP180;59492;45.638;11.714;2023-01-20T11:31:02;100325.00;;;19.12
71649;BMP180;59492;45.638;11.714;2023-01-20T11:33:28;100316.20;;;19.18
71649;BMP180;59492;45.638;11.714;2023-01-20T11:36:05;100314.40;;;19.16
71649;BMP180;59492;45.638;11.714;2023-01-20T11:38:43;100310.80;;;19.10
71649;BMP180;59492;45.638;11.714;2023-01-20T11:41:29;100303.40;;;19.10
71649;BMP180;59492;45.638;11.714;2023-01-20T11:43:57;100305.00;;;19.00
71649;BMP180;59492;45.638;11.714;2023-01-20T11:46:31;100303.00;;;19.00
71649;BMP180;59492;45.638;11.714;2023-01-20T11:49:18;100303.40;;;19.00
71649;BMP180;59492;45.638;11.714;2023-01-20T11:51:55;100299.20;;;19.00
71649;BMP180;59492;45.638;11.714;2023-01-20T11:54:24;100300.60;;;19.00
71649;BMP180;59492;45.638;11.714;2023-01-20T11:56:59;100299.20;;;19.00
71649;BMP180;59492;45.638;11.714;2023-01-20T11:59:28;100296.00;;;19.00
71649;BMP180;59492;45.638;11.714;2023-01-20T12:02:00;100295.00;;;19.00
71649;BMP180;59492;45.638;11.714;2023-01-20T12:07:35;100296.40;;;19.00
71649;BMP180;59492;45.638;11.714;2023-01-20T12:10:12;100295.00;;;19.00
71649;BMP180;59492;45.638;11.714;2023-01-20T12:12:48;100294.40;;;19.00
71649;BMP180;59492;45.638;11.714;2023-01-20T12:15:23;100293.20;;;19.00
71649;BMP180;59492;45.638;11.714;2023-01-20T12:18:05;100291.00;;;19.00
71649;BMP180;59492;45.638;11.714;2023-01-20T12:25:59;100295.40;;;19.00
71649;BMP180;59492;45.638;11.714;2023-01-20T12:31:17;100296.60;;;18.90
71649;BMP180;59492;45.638;11.714;2023-01-20T12:33:49;100298.20;;;18.82
71649;BMP180;59492;45.638;11.714;2023-01-20T12:50:09;100297.00;;;18.60
71649;BMP180;59492;45.638;11.714;2023-01-20T12:56:47;100302.80;;;18.50
71649;BMP180;59492;45.638;11.714;2023-01-20T13:04:24;100296.80;;;18.30
71649;BMP180;59492;45.638;11.714;2023-01-20T13:15:27;100295.40;;;18.10
71649;BMP180;59492;45.638;11.714;2023-01-20T13:20:57;100295.40;;;18.00
71649;BMP180;59492;45.638;11.714;2023-01-20T13:23:30;100292.00;;;18.00
71649;BMP180;59492;45.638;11.714;2023-01-20T13:25:59;100295.00;;;17.94
71649;BMP180;59492;45.638;11.714;2023-01-20T13:28:27;100294.20;;;17.90
71649;BMP180;59492;45.638;11.714;2023-01-20T13:30:55;100294.80;;;17.90
71649;BMP180;59492;45.638;11.714;2023-01-20T13:33:33;100296.60;;;17.82
71649;BMP180;59492;45.638;11.714;2023-01-20T13:36:20;100299.60;;;17.80
71649;BMP180;59492;45.638;11.714;2023-01-20T13:39:35;100297.80;;;17.70
71649;BMP180;59492;45.638;11.714;2023-01-20T13:41:47;100302.20;;;17.70
71649;BMP180;59492;45.638;11.714;2023-01-20T13:47:00;100310.60;;;17.60
71649;BMP180;59492;45.638;11.714;2023-01-20T13:49:51;100312.20;;;17.60
71649;BMP180;59492;45.638;11.714;2023-01-20T13:58:35;100320.40;;;17.50
71649;BMP180;59492;45.638;11.714;2023-01-20T14:01:05;100319.40;;;17.42
71649;BMP180;59492;45.638;11.714;2023-01-20T14:03:35;100319.20;;;17.40
71649;BMP180;59492;45.638;11.714;2023-01-20T14:08:42;100319.00;;;17.40
71649;BMP180;59492;45.638;11.714;2023-01-20T14:11:14;100316.00;;;17.40
71649;BMP180;59492;45.638;11.714;2023-01-20T14:13:41;100319.60;;;17.40
71649;BMP180;59492;45.638;11.714;2023-01-20T14:16:37;100316.80;;;17.40
71649;BMP180;59492;45.638;11.714;2023-01-20T14:19:34;100318.00;;;17.36
71649;BMP180;59492;45.638;11.714;2023-01-20T14:22:02;100317.60;;;17.30
71649;BMP180;59492;45.638;11.714;2023-01-20T14:29:31;100325.40;;;17.40
71649;BMP180;59492;45.638;11.714;2023-01-20T14:31:56;100329.80;;;17.40
71649;BMP180;59492;45.638;11.714;2023-01-20T14:34:27;100333.20;;;17.40
71649;BMP180;59492;45.638;11.714;2023-01-20T14:36:56;100335.20;;;17.40
71649;BMP180;59492;45.638;11.714;2023-01-20T14:39:25;100335.40;;;17.50
71649;BMP180;59492;45.638;11.714;2023-01-20T14:41:53;100338.60;;;17.50
71649;BMP180;59492;45.638;11.714;2023-01-20T14:44:22;100337.60;;;17.50
71649;BMP180;59492;45.638;11.714;2023-01-20T14:46:51;100339.20;;;17.50
71649;BMP180;59492;45.638;11.714;2023-01-20T14:49:19;100340.20;;;17.50
71649;BMP180;59492;45.638;11.714;2023-01-20T14:51:46;100341.40;;;17.50
71649;BMP180;59492;45.638;11.714;2023-01-20T15:02:42;100350.00;;;17.40
71649;BMP180;59492;45.638;11.714;2023-01-20T15:05:28;100352.80;;;17.48
71649;BMP180;59492;45.638;11.714;2023-01-20T15:08:15;100355.80;;;17.46
71649;BMP180;59492;45.638;11.714;2023-01-20T15:10:44;100357.80;;;17.44
71649;BMP180;59492;45.638;11.714;2023-01-20T15:13:24;100357.20;;;17.50
71649;BMP180;59492;45.638;11.714;2023-01-20T15:15:50;100358.80;;;17.48
71649;BMP180;59492;45.638;11.714;2023-01-20T15:18:20;100362.00;;;17.50
71649;BMP180;59492;45.638;11.714;2023-01-20T15:20:51;100365.00;;;17.50
71649;BMP180;59492;45.638;11.714;2023-01-20T15:25:52;100365.00;;;17.48
71649;BMP180;59492;45.638;11.714;2023-01-20T15:28:28;100369.60;;;17.50
71649;BMP180;59492;45.638;11.714;2023-01-20T15:30:56;100368.20;;;17.46
71649;BMP180;59492;45.638;11.714;2023-01-20T15:33:23;100373.40;;;17.42
71649;BMP180;59492;45.638;11.714;2023-01-20T15:35:54;100377.00;;;17.40
71649;BMP180;59492;45.638;11.714;2023-01-20T15:38:20;100383.80;;;17.40
71649;BMP180;59492;45.638;11.714;2023-01-20T15:40:46;100381.00;;;17.40
71649;BMP180;59492;45.638;11.714;2023-01-20T15:43:16;100382.60;;;17.36
71649;BMP180;59492;45.638;11.714;2023-01-20T15:45:42;100382.80;;;17.30
71649;BMP180;59492;45.638;11.714;2023-01-20T15:48:17;100387.80;;;17.30
71649;BMP180;59492;45.638;11.714;2023-01-20T15:50:44;100388.60;;;17.30
71649;BMP180;59492;45.638;11.714;2023-01-20T15:53:10;100394.40;;;17.40
71649;BMP180;59492;45.638;11.714;2023-01-20T15:55:44;100397.20;;;17.38
71649;BMP180;59492;45.638;11.714;2023-01-20T15:58:32;100396.00;;;17.30